Time;durP1;ratioP1;P1;durP2;ratioP2;P2;SDS_P1;SDS_P2;PMS_P1;PMS_P2;Temp;Humidity;BMP_temperature;BMP_pressure;BME280_temperature;BME280_humidity;BME280_pressure;Samples;Min_cycle;Max_cycle;Signal;HPM_P1;HPM_P2
2022/06/16 00:01:05;;;;;;;4.13;3.40;;;17.00;94.50;;;;;;4959992;28;20434;-88
2022/06/16 00:03:59;;;;;;;;;;;;;;;;;;;;;
2022/06/16 00:07:19;;;;;;;5.50;3.73;;;16.90;94.00;;;;;;4961555;28;20430;-88
2022/06/16 00:10:08;;;;;;;4.53;3.87;;;16.80;93.80;;;;;;4961677;28;21039;-89
2022/06/16 00:12:49;;;;;;;4.50;3.73;;;16.80;94.00;;;;;;4957458;28;20441;-91
2022/06/16 00:18:59;;;;;;;4.50;3.70;;;16.70;95.00;;;;;;4994022;28;20512;-88
2022/06/16 00:21:39;;;;;;;5.23;4.50;;;16.60;95.60;;;;;;4918389;29;20428;-89
2022/06/16 00:24:49;;;;;;;6.73;3.80;;;16.50;95.60;;;;;;4931026;29;20427;-89
2022/06/16 00:28:19;;;;;;;5.73;4.00;;;16.50;95.50;;;;;;4912526;29;20629;-89
2022/06/16 00:31:39;;;;;;;7.10;4.07;;;16.40;95.70;;;;;;4914880;29;20432;-88
2022/06/16 00:34:19;;;;;;;7.80;3.90;;;16.30;96.30;;;;;;4922920;29;20455;-88
2022/06/16 00:37:09;;;;;;;;;;;;;;;;;;;;;
2022/06/16 00:40:18;;;;;;;4.20;3.97;;;16.30;96.20;;;;;;4982494;28;20425;-88
2022/06/16 00:42:58;;;;;;;6.60;4.23;;;16.20;95.80;;;;;;4992709;28;20867;-87
2022/06/16 00:46:18;;;;;;;4.90;3.67;;;16.10;95.30;;;;;;4982056;28;20477;-89
2022/06/16 00:49:29;;;;;;;;;;;;;;;;;;;;;
2022/06/16 00:55:59;;;;;;;4.13;3.50;;;16.00;95.60;;;;;;4941611;28;20432;-91
2022/06/16 00:58:57;;;;;;;6.00;4.03;;;15.90;95.90;;;;;;4984598;28;20515;-89
2022/06/16 01:01:59;;;;;;;5.70;3.90;;;15.90;96.00;;;;;;4990603;28;20425;-87
2022/06/16 01:05:07;;;;;;;6.17;3.90;;;15.90;96.10;;;;;;4902489;29;20500;-91
2022/06/16 01:07:59;;;;;;;4.90;3.80;;;15.90;96.50;;;;;;4931173;29;20439;-88
2022/06/16 01:10:48;;;;;;;8.20;4.07;;;15.90;96.50;;;;;;4910970;29;20428;-89
2022/06/16 01:14:27;;;;;;;;;;;;;;;;;;;;;
2022/06/16 01:21:05;;;;;;;4.77;3.53;;;15.80;96.80;;;;;;4882146;29;20459;-89
2022/06/16 01:31:49;;;;;;;7.33;3.87;;;15.70;96.70;;;;;;4762112;30;20467;-89
2022/06/16 01:34:59;;;;;;;5.93;4.13;;;15.60;97.30;;;;;;4777261;30;20570;-92
2022/06/16 01:41:57;;;;;;;8.20;4.47;;;15.60;97.30;;;;;;4760167;29;20452;-90
2022/06/16 01:52:13;;;;;;;;;;;;;;;;;;;;;
2022/06/16 01:55:10;;;;;;;9.80;4.80;;;15.50;97.30;;;;;;4888126;29;20441;-94
2022/06/16 01:58:26;;;;;;;;;;;;;;;;;;;;;
2022/06/16 02:01:46;;;;;;;4.97;4.03;;;15.50;97.30;;;;;;4925905;29;20442;-89
2022/06/16 02:04:55;;;;;;;7.97;4.97;;;15.50;97.30;;;;;;4910849;29;20506;-88
2022/06/16 02:07:49;;;;;;;4.47;4.17;;;15.40;97.30;;;;;;4895675;29;20435;-87
2022/06/16 02:11:28;;;;;;;6.03;4.17;;;15.40;97.30;;;;;;4926437;29;20852;-88
2022/06/16 02:14:58;;;;;;;7.17;4.43;;;15.40;97.30;;;;;;4851508;29;20435;-89
2022/06/16 02:17:29;;;;;;;8.50;4.30;;;15.30;97.30;;;;;;4866670;29;20450;-88
2022/06/16 02:20:29;;;;;;;5.20;3.87;;;15.30;97.30;;;;;;4894749;29;20421;-88
2022/06/16 02:23:59;;;;;;;;;;;;;;;;;;;;;
2022/06/16 02:27:18;;;;;;;11.03;6.30;;;15.30;97.30;;;;;;4887008;29;20428;-89
2022/06/16 02:29:59;;;;;;;11.43;4.43;;;15.30;97.30;;;;;;4874141;28;20444;-90
2022/06/16 02:33:41;;;;;;;7.00;3.77;;;15.30;97.30;;;;;;4995879;28;20459;-87
2022/06/16 02:37:08;;;;;;;4.83;4.53;;;15.30;97.30;;;;;;4973623;28;20425;-89
2022/06/16 02:39:47;;;;;;;7.23;4.43;;;15.30;97.30;;;;;;4981519;28;20517;-90
2022/06/16 02:46:17;;;;;;;11.73;4.13;;;15.30;97.30;;;;;;4975074;28;20501;-91
2022/06/16 02:49:09;;;;;;;7.47;4.63;;;15.30;97.30;;;;;;4909363;29;20440;-90
2022/06/16 02:51:45;;;;;;;9.10;4.30;;;15.30;97.30;;;;;;4943225;29;20442;-91
2022/06/16 02:54:29;;;;;;;8.60;4.63;;;15.30;97.30;;;;;;4941159;29;20961;-90
2022/06/16 02:57:06;;;;;;;5.67;4.13;;;15.30;97.30;;;;;;4940116;29;20440;-91
2022/06/16 03:00:19;;;;;;;8.60;4.30;;;15.20;97.30;;;;;;4940949;28;20434;-91
2022/06/16 03:02:48;;;;;;;4.70;4.27;;;15.20;97.30;;;;;;4933469;29;20549;-91
2022/06/16 03:05:17;;;;;;;6.33;4.73;;;15.20;97.30;;;;;;4982867;28;20555;-91
2022/06/16 03:07:44;;;;;;;8.13;5.70;;;15.20;97.30;;;;;;4999940;28;20514;-90
2022/06/16 03:10:12;;;;;;;9.90;5.80;;;15.20;97.30;;;;;;4997679;28;20884;-90
2022/06/16 03:12:37;;;;;;;7.90;5.90;;;15.20;97.30;;;;;;4995885;28;20484;-90
2022/06/16 03:15:04;;;;;;;10.60;6.40;;;15.20;97.30;;;;;;4996178;28;20519;-90
2022/06/16 03:17:31;;;;;;;10.57;6.30;;;15.20;97.30;;;;;;4996793;28;20596;-90
2022/06/16 03:19:57;;;;;;;11.43;6.40;;;15.20;97.30;;;;;;5000124;28;20421;-90
2022/06/16 03:22:23;;;;;;;8.60;6.97;;;15.20;97.30;;;;;;5008304;28;20455;-90
2022/06/16 03:24:49;;;;;;;14.03;7.77;;;15.20;97.30;;;;;;5003974;28;20487;-92
2022/06/16 03:27:16;;;;;;;8.90;6.37;;;15.20;97.30;;;;;;4999376;28;20801;-90
2022/06/16 03:29:44;;;;;;;10.80;6.07;;;15.30;97.30;;;;;;4995428;28;20193;-91
2022/06/16 03:32:09;;;;;;;10.33;6.50;;;15.30;97.30;;;;;;5008199;28;20441;-90
2022/06/16 03:34:37;;;;;;;7.10;5.60;;;15.30;97.30;;;;;;4994944;28;20476;-90
2022/06/16 03:37:03;;;;;;;8.60;6.30;;;15.30;97.30;;;;;;4995594;28;20178;-91
2022/06/16 03:39:29;;;;;;;7.33;5.57;;;15.30;97.30;;;;;;4995860;28;20508;-90
2022/06/16 03:41:54;;;;;;;11.83;6.40;;;15.30;97.30;;;;;;4995359;28;20445;-91
2022/06/16 03:44:20;;;;;;;12.47;6.20;;;15.30;97.30;;;;;;5004037;28;20225;-91
2022/06/16 03:46:46;;;;;;;8.20;5.40;;;15.30;97.30;;;;;;4985847;28;20188;-90
2022/06/16 03:49:20;;;;;;;8.90;6.30;;;15.30;97.30;;;;;;4994646;28;20184;-90
2022/06/16 03:51:48;;;;;;;9.10;5.97;;;15.40;97.30;;;;;;5008151;28;20197;-90
2022/06/16 03:54:19;;;;;;;9.53;6.70;;;15.40;97.30;;;;;;4994962;28;20810;-91
2022/06/16 03:56:48;;;;;;;11.20;6.33;;;15.40;97.30;;;;;;4994728;28;20474;-90
2022/06/16 03:59:21;;;;;;;13.53;5.67;;;15.40;97.30;;;;;;4994814;28;20429;-90
2022/06/16 04:01:50;;;;;;;11.40;6.07;;;15.50;97.30;;;;;;5007180;28;20457;-90
2022/06/16 04:04:18;;;;;;;10.40;6.07;;;15.50;97.30;;;;;;5002695;28;20467;-91
2022/06/16 04:06:51;;;;;;;11.50;5.40;;;15.60;97.30;;;;;;5003051;28;20526;-89
2022/06/16 04:09:17;;;;;;;6.13;5.13;;;15.60;97.30;;;;;;5000383;28;20405;-90
2022/06/16 04:12:08;;;;;;;9.30;5.50;;;15.70;97.30;;;;;;4995565;28;20467;-90
2022/06/16 04:14:39;;;;;;;7.33;5.57;;;15.70;97.30;;;;;;4989827;28;20794;-89
2022/06/16 04:20:38;;;;;;;7.83;4.93;;;15.80;97.10;;;;;;4991944;28;20435;-90
2022/06/16 04:23:56;;;;;;;10.33;6.03;;;15.80;97.00;;;;;;5000410;28;20439;-87
2022/06/16 04:32:59;;;;;;;10.20;5.33;;;15.90;96.70;;;;;;4963661;28;20442;-91
2022/06/16 04:39:10;;;;;;;11.10;6.97;;;16.00;96.50;;;;;;4970959;28;20860;-91
2022/06/16 04:44:05;;;;;;;8.00;5.47;;;15.90;96.30;;;;;;4967122;28;20504;-87
2022/06/16 04:46:32;;;;;;;10.03;5.80;;;15.90;96.60;;;;;;4968579;28;20473;-87
2022/06/16 04:48:58;;;;;;;7.97;4.80;;;15.90;96.60;;;;;;4969154;28;20422;-86
2022/06/16 04:51:24;;;;;;;13.00;6.70;;;15.90;96.50;;;;;;4965201;28;20429;-86
2022/06/16 04:53:54;;;;;;;13.70;6.13;;;15.90;96.70;;;;;;4971163;28;20186;-87
2022/06/16 04:56:24;;;;;;;7.50;5.50;;;16.00;96.80;;;;;;4971294;28;21102;-87
2022/06/16 04:58:49;;;;;;;10.07;6.37;;;16.00;96.90;;;;;;4971150;28;20418;-86
2022/06/16 05:01:17;;;;;;;9.73;5.90;;;16.00;97.20;;;;;;4967589;28;20442;-87
2022/06/16 05:03:53;;;;;;;14.50;6.10;;;16.00;97.20;;;;;;4970678;28;20237;-87
2022/06/16 05:06:21;;;;;;;12.53;6.23;;;16.00;97.30;;;;;;4969548;28;20479;-87
2022/06/16 05:08:50;;;;;;;11.43;7.00;;;16.10;97.30;;;;;;4959692;28;20421;-88
2022/06/16 05:11:20;;;;;;;11.20;5.80;;;16.10;97.30;;;;;;4964695;28;20434;-88
2022/06/16 05:13:49;;;;;;;10.20;6.60;;;16.20;97.20;;;;;;4968172;28;20434;-87
2022/06/16 05:16:19;;;;;;;14.40;7.20;;;16.20;97.10;;;;;;4972032;28;20457;-87
2022/06/16 05:18:48;;;;;;;10.87;6.50;;;16.30;97.10;;;;;;4965394;28;20422;-87
2022/06/16 05:21:17;;;;;;;9.70;6.00;;;16.30;96.90;;;;;;4966937;28;20939;-87
2022/06/16 05:23:45;;;;;;;8.40;5.50;;;16.40;96.80;;;;;;4965223;28;20453;-87
2022/06/16 05:26:20;;;;;;;11.20;6.67;;;16.40;96.70;;;;;;4967402;28;20741;-88
2022/06/16 05:28:46;;;;;;;9.73;5.87;;;16.50;96.70;;;;;;4960125;28;20430;-88
2022/06/16 05:31:15;;;;;;;11.77;6.53;;;16.50;96.30;;;;;;4962067;28;20801;-87
2022/06/16 05:33:47;;;;;;;8.70;6.00;;;16.50;96.30;;;;;;4970187;28;20425;-88
2022/06/16 05:36:20;;;;;;;14.17;6.23;;;16.50;96.40;;;;;;4969026;28;20924;-88
2022/06/16 05:38:46;;;;;;;12.43;6.93;;;16.50;96.70;;;;;;4964591;28;20429;-87
2022/06/16 05:41:15;;;;;;;13.83;6.70;;;16.50;96.50;;;;;;4970235;28;20422;-89
2022/06/16 05:43:42;;;;;;;17.13;6.90;;;16.50;96.20;;;;;;4964281;28;20540;-88
2022/06/16 05:46:19;;;;;;;8.33;5.80;;;16.50;96.50;;;;;;4969259;28;21048;-87
2022/06/16 05:48:47;;;;;;;11.00;5.93;;;16.50;96.50;;;;;;4966135;28;20418;-88
2022/06/16 05:51:17;;;;;;;13.83;6.10;;;16.50;96.80;;;;;;4971219;28;20437;-87
2022/06/16 05:53:47;;;;;;;15.97;6.23;;;16.60;96.80;;;;;;4970693;28;20426;-88
2022/06/16 05:56:15;;;;;;;11.13;6.20;;;16.60;96.90;;;;;;4970439;28;20806;-88
2022/06/16 05:58:49;;;;;;;10.60;5.70;;;16.60;97.00;;;;;;4970877;28;20460;-88
2022/06/16 06:01:18;;;;;;;10.93;6.20;;;16.60;97.30;;;;;;4958340;28;20805;-88
2022/06/16 06:03:46;;;;;;;8.80;5.93;;;16.60;97.10;;;;;;4970293;28;20429;-89
2022/06/16 06:06:12;;;;;;;13.50;6.30;;;16.60;97.10;;;;;;4970486;28;20564;-88
2022/06/16 06:17:14;;;;;;;10.67;6.70;;;16.60;96.90;;;;;;4972397;28;20472;-89
2022/06/16 06:19:39;;;;;;;11.73;7.00;;;16.60;97.30;;;;;;4965690;28;20418;-88
2022/06/16 06:22:11;;;;;;;9.43;6.80;;;16.60;97.30;;;;;;4971190;28;20452;-88
2022/06/16 06:24:43;;;;;;;15.30;6.77;;;16.60;97.30;;;;;;4958875;28;20228;-89
2022/06/16 06:27:16;;;;;;;9.17;6.90;;;16.60;97.30;;;;;;4969438;28;20458;-89
2022/06/16 06:29:43;;;;;;;14.53;7.10;;;16.60;97.30;;;;;;4960802;28;20433;-88
2022/06/16 06:32:10;;;;;;;8.50;7.10;;;16.60;97.30;;;;;;4971796;28;20433;-88
2022/06/16 06:34:37;;;;;;;10.10;7.10;;;16.60;97.30;;;;;;4971015;28;20488;-89
2022/06/16 06:37:04;;;;;;;10.30;6.73;;;16.60;97.30;;;;;;4970209;28;20994;-88
2022/06/16 06:39:30;;;;;;;13.47;7.00;;;16.60;97.30;;;;;;4970774;28;20433;-88
2022/06/16 06:41:56;;;;;;;10.17;6.60;;;16.60;97.30;;;;;;4970772;28;20434;-88
2022/06/16 06:44:23;;;;;;;10.70;7.20;;;16.60;97.30;;;;;;4970559;28;20214;-88
2022/06/16 06:46:49;;;;;;;10.87;6.83;;;16.70;97.30;;;;;;4970785;28;20477;-88
2022/06/16 06:49:14;;;;;;;11.60;6.27;;;16.70;97.30;;;;;;4971482;28;20468;-88
2022/06/16 06:51:40;;;;;;;11.10;6.03;;;16.70;97.30;;;;;;4970087;28;20206;-88
2022/06/16 06:54:06;;;;;;;13.00;6.40;;;16.70;97.30;;;;;;4970439;28;20186;-89
2022/06/16 06:56:32;;;;;;;12.80;6.77;;;16.80;97.30;;;;;;4968338;28;20293;-88
2022/06/16 06:59:02;;;;;;;14.03;7.37;;;16.80;97.30;;;;;;4966350;28;20282;-89
2022/06/16 07:01:28;;;;;;;14.50;7.50;;;16.80;97.30;;;;;;4973755;28;20947;-89
2022/06/16 07:03:54;;;;;;;10.80;6.90;;;16.90;97.30;;;;;;4973882;28;20509;-89
2022/06/16 07:06:20;;;;;;;11.27;6.90;;;16.90;97.30;;;;;;4973911;28;20465;-89
2022/06/16 07:08:46;;;;;;;15.00;6.73;;;17.00;97.30;;;;;;4973673;28;20179;-89
2022/06/16 07:11:12;;;;;;;10.53;7.00;;;17.00;97.30;;;;;;4973478;28;20183;-89
2022/06/16 07:13:38;;;;;;;13.87;6.73;;;17.10;97.30;;;;;;4974468;28;20504;-88
2022/06/16 07:16:04;;;;;;;15.33;7.50;;;17.20;97.30;;;;;;4973111;28;20217;-89
2022/06/16 07:18:30;;;;;;;10.70;5.77;;;17.20;97.30;;;;;;4973980;28;20186;-88
2022/06/16 07:20:55;;;;;;;11.60;6.83;;;17.30;97.30;;;;;;4973194;28;20581;-88
2022/06/16 07:23:21;;;;;;;13.13;6.30;;;17.30;97.30;;;;;;4972952;28;20189;-89
2022/06/16 07:25:49;;;;;;;13.40;6.30;;;17.40;97.30;;;;;;4972562;28;20210;-88
2022/06/16 07:28:15;;;;;;;7.57;6.10;;;17.50;97.30;;;;;;4973373;28;20195;-88
2022/06/16 07:30:42;;;;;;;11.03;7.20;;;17.60;97.30;;;;;;4974439;28;20413;-88
2022/06/16 07:33:08;;;;;;;9.70;5.30;;;17.70;97.30;;;;;;4973605;28;20492;-87
2022/06/16 07:35:36;;;;;;;7.83;5.10;;;17.80;97.30;;;;;;4973466;28;20422;-88
2022/06/16 07:38:02;;;;;;;9.50;5.93;;;17.80;97.30;;;;;;4973422;28;20586;-87
2022/06/16 07:40:28;;;;;;;10.90;5.73;;;17.90;97.10;;;;;;4972396;28;20422;-87
2022/06/16 07:42:56;;;;;;;7.80;5.30;;;17.90;97.20;;;;;;4972998;28;20519;-88
2022/06/16 07:45:24;;;;;;;11.03;5.30;;;17.90;96.60;;;;;;4972054;28;20892;-88
2022/06/16 07:47:50;;;;;;;9.53;5.67;;;18.00;96.50;;;;;;4973487;28;20955;-87
2022/06/16 07:50:16;;;;;;;11.67;5.50;;;18.00;96.60;;;;;;4972853;28;20436;-88
2022/06/16 07:52:42;;;;;;;16.70;6.00;;;18.10;96.70;;;;;;4972199;28;20418;-88
2022/06/16 07:55:08;;;;;;;8.10;5.30;;;18.10;96.60;;;;;;4971882;28;20360;-87
2022/06/16 07:57:45;;;;;;;8.47;5.40;;;18.10;96.40;;;;;;4960760;28;20725;-88
2022/06/16 08:00:13;;;;;;;15.40;5.30;;;18.20;96.20;;;;;;4959894;28;20430;-87
2022/06/16 08:02:39;;;;;;;6.50;5.33;;;18.20;96.30;;;;;;4972221;28;20432;-86
2022/06/16 08:05:06;;;;;;;6.60;5.30;;;18.30;96.20;;;;;;4972029;28;20469;-87
2022/06/16 08:07:31;;;;;;;10.23;5.80;;;18.40;96.20;;;;;;4971190;28;20457;-88
2022/06/16 08:09:57;;;;;;;9.20;5.53;;;18.40;96.20;;;;;;4971666;28;20920;-88
2022/06/16 08:12:24;;;;;;;10.10;5.83;;;18.50;95.60;;;;;;4971189;28;20179;-87
2022/06/16 08:14:50;;;;;;;8.80;4.90;;;18.60;95.40;;;;;;4961692;28;20187;-87
2022/06/16 08:17:31;;;;;;;12.00;5.80;;;18.70;95.50;;;;;;4972141;28;20552;-87
2022/06/16 08:19:57;;;;;;;7.10;5.23;;;18.70;95.20;;;;;;4973282;28;20244;-87
2022/06/16 08:22:23;;;;;;;10.23;5.33;;;18.80;95.00;;;;;;4972281;28;20433;-88
2022/06/16 08:24:49;;;;;;;7.13;5.23;;;18.80;94.30;;;;;;4971501;28;20461;-87
2022/06/16 08:27:17;;;;;;;9.83;4.80;;;18.80;94.00;;;;;;4952694;28;20484;-89
2022/06/16 08:29:44;;;;;;;7.70;4.60;;;18.90;93.60;;;;;;4962582;28;20189;-86
2022/06/16 08:32:11;;;;;;;12.47;5.47;;;18.90;94.00;;;;;;4971486;28;20544;-86
2022/06/16 08:34:37;;;;;;;6.33;4.70;;;18.90;93.70;;;;;;4971649;28;20429;-87
2022/06/16 08:37:03;;;;;;;7.53;5.07;;;19.00;93.40;;;;;;4971112;28;21006;-87
2022/06/16 08:39:29;;;;;;;9.93;5.10;;;19.00;93.20;;;;;;4971279;28;20767;-87
2022/06/16 08:42:25;;;;;;;6.17;4.67;;;19.00;92.90;;;;;;4971558;28;20186;-87
2022/06/16 08:44:54;;;;;;;8.37;5.50;;;19.00;93.20;;;;;;4931461;28;20623;-87
2022/06/16 08:47:28;;;;;;;7.13;4.93;;;19.00;93.00;;;;;;4970597;28;20833;-87
2022/06/16 08:50:13;;;;;;;7.33;4.77;;;19.00;93.30;;;;;;4970645;28;20422;-87
2022/06/16 08:53:11;;;;;;;5.80;4.90;;;19.10;93.80;;;;;;4963736;28;20456;-87
2022/06/16 08:56:02;;;;;;;9.60;5.00;;;19.10;93.50;;;;;;4961201;28;20429;-87
2022/06/16 08:58:40;;;;;;;10.67;5.57;;;19.10;93.20;;;;;;4959001;28;20437;-86
2022/06/16 09:01:13;;;;;;;7.30;5.07;;;19.10;93.00;;;;;;4971601;28;20426;-87
2022/06/16 09:03:44;;;;;;;8.13;5.33;;;19.10;93.30;;;;;;4971214;28;20860;-87
2022/06/16 09:06:22;;;;;;;10.73;4.77;;;19.10;93.10;;;;;;4968829;28;20504;-87
2022/06/16 09:09:10;;;;;;;12.37;5.50;;;19.10;93.10;;;;;;4962980;28;20462;-87
2022/06/16 09:11:48;;;;;;;6.73;4.93;;;19.20;93.70;;;;;;4972175;28;20538;-88
2022/06/16 09:18:01;;;;;;;9.37;5.33;;;19.20;92.90;;;;;;4970831;28;20501;-87
2022/06/16 09:20:54;;;;;;;11.10;6.60;;;19.30;93.00;;;;;;4965411;28;20484;-87
2022/06/16 09:23:33;;;;;;;12.00;4.50;;;19.30;92.80;;;;;;4971682;28;20418;-87
2022/06/16 09:26:25;;;;;;;17.00;6.40;;;19.40;92.80;;;;;;4970558;28;20485;-87
2022/06/16 09:29:10;;;;;;;5.93;4.23;;;19.40;92.80;;;;;;4970450;28;20811;-87
2022/06/16 09:31:47;;;;;;;9.43;6.10;;;19.40;93.20;;;;;;4970881;28;20588;-88
2022/06/16 09:34:38;;;;;;;11.40;4.90;;;19.40;93.20;;;;;;4958184;28;20409;-87
2022/06/16 09:37:32;;;;;;;7.13;5.30;;;19.50;92.60;;;;;;4970751;28;20449;-88
2022/06/16 09:40:09;;;;;;;9.53;5.97;;;19.50;91.70;;;;;;4970592;28;20414;-87
2022/06/16 09:42:45;;;;;;;10.77;4.77;;;19.60;91.30;;;;;;4970458;28;20560;-89
2022/06/16 09:45:30;;;;;;;6.37;4.90;;;19.60;91.40;;;;;;4970700;28;20450;-87
2022/06/16 09:48:07;;;;;;;7.10;4.87;;;19.60;91.60;;;;;;4970653;28;20448;-87
2022/06/16 09:51:01;;;;;;;8.90;4.63;;;19.70;91.90;;;;;;4958761;28;20456;-87
2022/06/16 09:53:50;;;;;;;9.10;4.57;;;19.80;91.80;;;;;;4970516;28;20426;-87
2022/06/16 09:56:20;;;;;;;7.63;5.33;;;20.00;92.00;;;;;;4969845;28;20532;-88
2022/06/16 09:58:52;;;;;;;7.20;5.23;;;20.20;92.10;;;;;;4970292;28;20476;-88
2022/06/16 10:01:19;;;;;;;6.97;4.83;;;20.30;91.40;;;;;;4969839;28;20425;-87
2022/06/16 10:03:57;;;;;;;7.47;4.63;;;20.40;91.30;;;;;;4970139;28;20428;-87
2022/06/16 10:06:56;;;;;;;8.90;5.27;;;20.50;91.00;;;;;;4970306;28;20469;-87
2022/06/16 10:09:25;;;;;;;8.37;5.00;;;20.50;90.60;;;;;;4970485;28;20886;-87
2022/06/16 10:12:12;;;;;;;6.50;4.27;;;20.60;90.40;;;;;;4970115;28;20501;-88
2022/06/16 10:14:54;;;;;;;7.20;4.63;;;20.70;89.00;;;;;;4971515;28;20513;-86
2022/06/16 10:17:22;;;;;;;6.80;4.20;;;20.90;88.00;;;;;;4970021;28;20500;-87
2022/06/16 10:19:48;;;;;;;10.40;5.10;;;21.00;88.20;;;;;;4969822;28;20480;-88
2022/06/16 10:22:16;;;;;;;10.70;5.43;;;21.20;87.90;;;;;;4969653;28;20517;-87
2022/06/16 10:24:49;;;;;;;6.60;4.83;;;21.30;87.70;;;;;;4970218;28;20465;-86
2022/06/16 10:27:17;;;;;;;8.17;4.37;;;21.40;86.70;;;;;;4969623;28;20449;-87
2022/06/16 10:29:57;;;;;;;7.07;4.10;;;21.40;87.00;;;;;;4970934;28;20410;-87
2022/06/16 10:33:08;;;;;;;6.90;4.80;;;21.30;87.10;;;;;;4973243;28;20824;-87
2022/06/16 10:35:35;;;;;;;6.90;4.27;;;21.30;87.70;;;;;;4963071;28;20425;-86
2022/06/16 10:38:01;;;;;;;7.97;4.70;;;21.40;87.20;;;;;;4973790;28;20986;-87
2022/06/16 10:40:37;;;;;;;7.03;4.67;;;21.50;86.20;;;;;;4973476;28;20421;-88
2022/06/16 10:43:13;;;;;;;12.40;4.87;;;21.70;86.00;;;;;;4972948;28;20236;-88
2022/06/16 10:45:40;;;;;;;15.90;4.87;;;21.90;84.80;;;;;;4962477;28;20489;-88
2022/06/16 10:48:23;;;;;;;10.37;4.70;;;22.00;84.40;;;;;;4972953;28;20847;-86
2022/06/16 10:51:04;;;;;;;5.70;4.37;;;22.20;85.30;;;;;;4973178;28;20454;-87
2022/06/16 10:53:37;;;;;;;6.83;4.20;;;22.30;84.50;;;;;;4961338;28;20422;-87
2022/06/16 10:56:10;;;;;;;10.60;4.50;;;22.40;84.90;;;;;;4974014;28;20947;-87
2022/06/16 10:58:48;;;;;;;5.80;4.40;;;22.50;84.20;;;;;;4973184;28;20458;-87
2022/06/16 11:01:30;;;;;;;5.03;3.93;;;22.70;84.70;;;;;;4973681;28;20854;-86
2022/06/16 11:04:20;;;;;;;12.73;4.47;;;22.90;83.70;;;;;;4972645;28;20434;-88
2022/06/16 11:06:49;;;;;;;7.30;4.37;;;23.20;82.10;;;;;;4960476;28;20444;-87
2022/06/16 11:09:20;;;;;;;6.17;4.47;;;23.40;82.30;;;;;;4972346;28;20412;-87
2022/06/16 11:11:56;;;;;;;10.23;4.00;;;23.50;81.90;;;;;;4961774;28;20782;-87
2022/06/16 11:14:40;;;;;;;6.57;4.30;;;23.60;83.10;;;;;;4973201;28;20577;-87
2022/06/16 11:17:16;;;;;;;12.73;4.20;;;23.80;81.30;;;;;;4973447;28;20440;-87
2022/06/16 11:20:05;;;;;;;7.40;4.67;;;23.80;81.10;;;;;;4962570;28;20853;-89
2022/06/16 11:22:39;;;;;;;5.03;4.10;;;23.90;81.00;;;;;;4956286;28;20553;-87
2022/06/16 11:25:23;;;;;;;6.77;4.50;;;24.00;81.10;;;;;;4973604;28;20548;-88
2022/06/16 11:28:09;;;;;;;5.17;3.93;;;24.10;80.80;;;;;;4961552;28;20959;-88
2022/06/16 11:30:34;;;;;;;6.97;3.83;;;24.20;80.60;;;;;;4973810;28;20422;-87
2022/06/16 11:33:00;;;;;;;5.43;4.10;;;24.20;79.40;;;;;;4972777;28;20414;-89
2022/06/16 11:35:46;;;;;;;11.10;4.00;;;24.30;80.00;;;;;;4970354;28;20723;-88
2022/06/16 11:38:41;;;;;;;5.67;4.40;;;24.40;80.20;;;;;;4968938;28;20202;-88
2022/06/16 11:41:12;;;;;;;6.03;3.83;;;24.50;79.40;;;;;;4963760;28;20438;-88
2022/06/16 11:44:10;;;;;;;7.20;4.10;;;24.60;79.40;;;;;;4965659;28;20836;-89
2022/06/16 11:47:00;;;;;;;11.80;5.30;;;24.70;78.20;;;;;;4972330;28;20516;-89
2022/06/16 11:49:52;;;;;;;8.87;3.83;;;24.80;78.90;;;;;;4969706;28;20427;-89
2022/06/16 11:52:33;;;;;;;7.13;4.43;;;24.90;78.10;;;;;;4966797;28;20419;-89
2022/06/16 11:55:21;;;;;;;7.87;3.90;;;24.90;78.70;;;;;;4969117;28;20425;-88
2022/06/16 11:58:07;;;;;;;9.20;4.03;;;25.00;75.70;;;;;;4971831;28;20521;-90
2022/06/16 12:00:50;;;;;;;7.50;4.30;;;25.00;76.20;;;;;;4968474;28;20419;-89
2022/06/16 12:03:34;;;;;;;6.10;3.60;;;25.00;75.20;;;;;;4973373;28;20417;-91
2022/06/16 12:06:14;;;;;;;6.90;3.70;;;25.00;75.50;;;;;;4975008;28;20470;-89
2022/06/16 12:09:18;;;;;;;4.67;3.77;;;25.10;78.70;;;;;;4968333;28;20429;-89
2022/06/16 12:11:48;;;;;;;7.73;3.43;;;25.20;77.50;;;;;;4939711;28;20419;-88
2022/06/16 12:14:26;;;;;;;8.93;3.60;;;25.40;78.50;;;;;;4970853;28;20838;-89
2022/06/16 12:16:57;;;;;;;8.13;3.80;;;25.60;78.40;;;;;;4973631;28;20532;-88
2022/06/16 12:19:44;;;;;;;4.10;3.20;;;25.80;77.30;;;;;;4971972;28;20458;-90
2022/06/16 12:22:58;;;;;;;4.17;3.20;;;25.90;75.20;;;;;;4964986;28;20445;-89
2022/06/16 12:25:39;;;;;;;5.30;3.83;;;26.00;75.40;;;;;;4930948;28;20469;-89
2022/06/16 12:28:33;;;;;;;5.40;3.20;;;26.10;75.10;;;;;;4970191;28;20457;-89
2022/06/16 12:31:04;;;;;;;5.80;3.23;;;26.10;73.70;;;;;;4972007;28;20434;-88
2022/06/16 12:34:09;;;;;;;4.60;3.50;;;26.20;75.50;;;;;;4972739;28;20426;-88
2022/06/16 12:36:44;;;;;;;5.33;3.83;;;26.40;76.70;;;;;;4971291;28;20504;-89
2022/06/16 12:39:23;;;;;;;5.47;3.10;;;26.50;74.90;;;;;;4952515;28;20508;-89
2022/06/16 12:41:52;;;;;;;6.73;3.73;;;26.60;74.80;;;;;;4971114;28;20456;-87
2022/06/16 12:44:30;;;;;;;6.13;3.10;;;26.70;74.30;;;;;;4973977;28;20426;-90
2022/06/16 12:47:02;;;;;;;6.40;3.60;;;26.80;73.60;;;;;;4971910;28;20473;-87
2022/06/16 12:49:34;;;;;;;5.90;2.97;;;26.90;71.00;;;;;;4984885;28;20428;-88
2022/06/16 12:52:11;;;;;;;5.00;3.17;;;26.90;72.10;;;;;;4987084;28;20493;-87
2022/06/16 12:54:44;;;;;;;7.83;3.30;;;26.90;72.10;;;;;;4971701;28;20414;-88
2022/06/16 12:57:20;;;;;;;7.00;3.27;;;26.90;72.30;;;;;;4961945;28;20465;-89
2022/06/16 12:59:46;;;;;;;5.33;3.23;;;26.90;71.20;;;;;;4971698;28;20574;-90
2022/06/16 13:02:16;;;;;;;4.30;2.90;;;26.90;72.30;;;;;;4973077;28;20501;-90
2022/06/16 13:04:43;;;;;;;3.73;2.80;;;27.00;71.40;;;;;;4971305;28;20202;-88
2022/06/16 13:07:14;;;;;;;2.50;2.30;;;27.10;71.60;;;;;;4970619;28;20441;-88
2022/06/16 13:09:41;;;;;;;4.83;3.40;;;27.10;71.30;;;;;;4971997;28;20421;-88
2022/06/16 13:12:22;;;;;;;4.63;3.07;;;27.10;71.40;;;;;;4973339;28;20489;-89
2022/06/16 13:15:08;;;;;;;5.60;3.10;;;27.00;70.50;;;;;;4971943;28;20421;-89
2022/06/16 13:17:52;;;;;;;7.17;3.43;;;26.80;70.90;;;;;;4972446;28;20994;-91
2022/06/16 13:20:23;;;;;;;8.27;3.43;;;26.60;72.10;;;;;;4964386;28;20418;-88
2022/06/16 13:22:56;;;;;;;11.00;3.50;;;26.60;72.90;;;;;;4969668;28;20944;-90
2022/06/16 13:25:46;;;;;;;4.20;2.70;;;26.50;72.70;;;;;;4971838;28;20812;-89
2022/06/16 13:28:29;;;;;;;7.17;3.10;;;26.60;72.90;;;;;;4972065;28;20983;-88
2022/06/16 13:31:22;;;;;;;7.50;3.13;;;26.80;71.50;;;;;;4971649;28;20414;-88
2022/06/16 13:33:53;;;;;;;6.10;2.70;;;26.90;71.00;;;;;;4971852;28;20418;-89
2022/06/16 13:36:31;;;;;;;4.40;2.33;;;26.80;70.00;;;;;;4972280;28;20966;-90
2022/06/16 13:38:58;;;;;;;3.97;3.20;;;26.90;70.50;;;;;;4966006;28;20403;-89
2022/06/16 13:41:41;;;;;;;4.13;2.57;;;27.00;70.80;;;;;;4963759;28;20844;-88
2022/06/16 13:44:12;;;;;;;4.10;2.97;;;27.30;70.10;;;;;;4971820;28;20434;-88
2022/06/16 13:46:48;;;;;;;3.67;3.30;;;27.40;68.50;;;;;;4971859;28;21077;-88
2022/06/16 13:49:31;;;;;;;5.30;2.30;;;27.60;68.70;;;;;;4972328;28;20430;-88
2022/06/16 13:52:23;;;;;;;7.03;2.70;;;27.80;69.10;;;;;;4974392;28;20420;-90
2022/06/16 13:54:49;;;;;;;3.70;2.50;;;28.00;67.20;;;;;;4972133;28;20421;-91
2022/06/16 13:57:22;;;;;;;2.87;2.40;;;28.10;66.40;;;;;;4958549;28;20458;-89
2022/06/16 14:00:25;;;;;;;3.57;2.20;;;28.10;65.20;;;;;;4971870;28;20418;-90
2022/06/16 14:02:58;;;;;;;7.53;2.50;;;28.10;65.50;;;;;;4949343;29;20517;-89
2022/06/16 14:05:30;;;;;;;4.50;2.80;;;28.00;66.00;;;;;;4970985;28;20465;-89
2022/06/16 14:08:00;;;;;;;3.20;2.53;;;28.10;65.30;;;;;;4975998;28;20978;-90
2022/06/16 14:10:34;;;;;;;3.40;2.80;;;28.10;66.60;;;;;;4975730;28;20818;-90
2022/06/16 14:13:02;;;;;;;4.90;2.40;;;28.10;65.80;;;;;;4977596;28;20421;-88
2022/06/16 14:16:01;;;;;;;14.57;2.77;;;28.20;66.80;;;;;;4975763;28;20425;-90
2022/06/16 14:18:51;;;;;;;6.30;3.07;;;28.30;65.00;;;;;;4976172;28;20424;-88
2022/06/16 14:21:20;;;;;;;6.80;3.03;;;28.40;66.00;;;;;;4963074;28;20434;-89
2022/06/16 14:23:55;;;;;;;6.20;2.70;;;28.50;67.10;;;;;;4975376;28;20429;-90
2022/06/16 14:26:24;;;;;;;4.67;2.90;;;28.60;66.20;;;;;;4975607;28;20475;-89
2022/06/16 14:28:51;;;;;;;3.10;2.90;;;28.60;65.20;;;;;;4975460;28;20958;-89
2022/06/16 14:31:37;;;;;;;5.33;2.60;;;28.60;66.40;;;;;;4975278;28;20781;-89
2022/06/16 14:34:11;;;;;;;6.90;3.53;;;28.70;65.50;;;;;;4975285;28;20516;-88
2022/06/16 14:36:44;;;;;;;3.13;2.57;;;28.70;65.70;;;;;;4975795;28;20449;-88
2022/06/16 14:39:30;;;;;;;4.43;2.40;;;28.70;66.00;;;;;;4976030;28;20516;-91
2022/06/16 14:42:02;;;;;;;4.90;2.80;;;28.70;64.80;;;;;;4977346;28;20448;-89
2022/06/16 14:44:36;;;;;;;4.53;2.90;;;28.60;65.40;;;;;;4975178;28;20845;-89
2022/06/16 14:47:16;;;;;;;7.57;2.90;;;28.50;65.50;;;;;;4972968;28;20445;-90
2022/06/16 14:49:58;;;;;;;7.23;2.93;;;28.60;66.90;;;;;;4980684;28;20963;-90